createdAt,value
2023-05-19T00:01:23.238Z,97.61
2023-05-19T00:03:57.533Z,97.95
2023-05-19T00:06:27.056Z,98.51
2023-05-19T00:08:59.873Z,99.28
2023-05-19T00:11:28.332Z,99.30
2023-05-19T00:14:00.052Z,99.42
2023-05-19T00:16:28.886Z,98.59
2023-05-19T00:18:58.709Z,98.54
2023-05-19T00:21:27.150Z,97.94
2023-05-19T00:23:55.157Z,96.06
2023-05-19T00:26:23.801Z,96.64
2023-05-19T00:28:53.147Z,96.76
2023-05-19T00:31:21.534Z,95.78
2023-05-19T00:33:49.534Z,97.96
2023-05-19T00:36:17.217Z,99.37
2023-05-19T00:38:44.874Z,99.31
2023-05-19T00:41:12.837Z,97.97
2023-05-19T00:43:40.525Z,99.56
2023-05-19T00:46:08.254Z,99.90
2023-05-19T00:48:36.584Z,98.07
2023-05-19T00:51:05.241Z,96.92
2023-05-19T00:53:34.068Z,98.21
2023-05-19T00:56:02.817Z,98.04
2023-05-19T00:58:30.988Z,97.23
2023-05-19T01:00:59.778Z,98.93
2023-05-19T01:03:28.071Z,100.00
2023-05-19T01:05:55.974Z,100.00
2023-05-19T01:08:23.786Z,100.00
2023-05-19T01:10:51.784Z,100.00
2023-05-19T01:13:19.407Z,100.00
2023-05-19T01:16:19.421Z,100.00
2023-05-19T01:19:00.721Z,99.90
2023-05-19T01:22:22.962Z,100.00
2023-05-19T01:25:25.041Z,100.00
2023-05-19T01:28:30.183Z,100.00
2023-05-19T01:31:00.037Z,100.00
2023-05-19T01:33:29.761Z,100.00
2023-05-19T01:35:59.692Z,100.00
2023-05-19T01:38:28.472Z,100.00
2023-05-19T01:40:57.383Z,100.00
2023-05-19T01:43:26.617Z,100.00
2023-05-19T01:45:54.817Z,100.00
2023-05-19T01:48:22.922Z,100.00
2023-05-19T01:50:51.393Z,100.00
2023-05-19T01:53:19.412Z,100.00
2023-05-19T01:55:50.276Z,100.00
2023-05-19T01:58:49.175Z,100.00
2023-05-19T02:01:53.697Z,100.00
2023-05-19T02:04:33.862Z,100.00
2023-05-19T02:07:04.524Z,100.00
2023-05-19T02:09:54.247Z,100.00
2023-05-19T02:12:38.346Z,100.00
2023-05-19T02:15:07.681Z,100.00
2023-05-19T02:17:39.062Z,100.00
2023-05-19T02:20:08.569Z,99.95
2023-05-19T02:22:37.107Z,100.00
2023-05-19T02:25:05.127Z,100.00
2023-05-19T02:27:34.655Z,100.00
2023-05-19T02:30:07.350Z,100.00
2023-05-19T02:32:35.195Z,100.00
2023-05-19T02:35:03.517Z,100.00
2023-05-19T02:37:31.507Z,100.00
2023-05-19T02:39:59.356Z,99.68
2023-05-19T02:42:27.282Z,100.00
2023-05-19T02:44:55.214Z,100.00
2023-05-19T02:47:22.958Z,100.00
2023-05-19T02:49:50.965Z,100.00
2023-05-19T02:52:18.602Z,100.00
2023-05-19T02:54:46.484Z,100.00
2023-05-19T02:57:14.401Z,100.00
2023-05-19T02:59:42.034Z,100.00
2023-05-19T03:02:09.809Z,100.00
2023-05-19T03:04:37.804Z,100.00
2023-05-19T03:07:05.481Z,100.00
2023-05-19T03:09:33.220Z,100.00
2023-05-19T03:12:01.367Z,100.00
2023-05-19T03:14:29.026Z,100.00
2023-05-19T03:16:57.154Z,100.00
2023-05-19T03:19:26.052Z,100.00
2023-05-19T03:21:53.971Z,100.00
2023-05-19T03:24:21.690Z,100.00
2023-05-19T03:26:50.746Z,100.00
2023-05-19T03:29:18.828Z,100.00
2023-05-19T03:31:46.554Z,100.00
2023-05-19T03:34:14.721Z,100.00
2023-05-19T03:36:42.697Z,100.00
2023-05-19T03:39:11.514Z,100.00
2023-05-19T03:41:39.833Z,100.00
2023-05-19T03:44:07.456Z,100.00
2023-05-19T03:46:35.200Z,100.00
2023-05-19T03:49:04.263Z,100.00
2023-05-19T03:51:32.391Z,100.00
2023-05-19T03:54:00.547Z,100.00
2023-05-19T03:56:28.644Z,100.00
2023-05-19T03:58:56.342Z,100.00
2023-05-19T04:01:24.040Z,100.00
2023-05-19T04:03:52.083Z,100.00
2023-05-19T04:06:19.689Z,100.00
2023-05-19T04:08:47.705Z,100.00
2023-05-19T04:11:15.804Z,100.00
2023-05-19T04:13:45.203Z,100.00
2023-05-19T04:16:13.528Z,100.00
2023-05-19T04:18:42.401Z,100.00
2023-05-19T04:21:10.189Z,100.00
2023-05-19T04:23:39.029Z,100.00
2023-05-19T04:26:07.058Z,100.00
2023-05-19T04:28:34.640Z,100.00
2023-05-19T04:31:02.407Z,98.96
2023-05-19T04:33:30.525Z,100.00
2023-05-19T04:35:58.939Z,100.00
2023-05-19T04:38:26.814Z,100.00
2023-05-19T04:40:54.970Z,99.58
2023-05-19T04:43:22.642Z,98.74
2023-05-19T04:45:50.760Z,98.91
2023-05-19T04:48:18.905Z,100.00
2023-05-19T04:50:46.809Z,100.00
2023-05-19T04:53:15.174Z,100.00
2023-05-19T04:55:43.997Z,100.00
2023-05-19T04:58:12.921Z,100.00
2023-05-19T05:00:40.669Z,100.00
2023-05-19T05:03:08.871Z,100.00
2023-05-19T05:05:36.884Z,100.00
2023-05-19T05:08:04.671Z,98.35
2023-05-19T05:10:33.364Z,97.20
2023-05-19T05:13:02.635Z,96.01
2023-05-19T05:15:30.851Z,100.00
2023-05-19T05:17:59.915Z,100.00
2023-05-19T05:20:27.937Z,100.00
2023-05-19T05:22:55.914Z,100.00
2023-05-19T05:25:24.159Z,99.77
2023-05-19T05:27:52.102Z,100.00
2023-05-19T05:30:19.986Z,100.00
2023-05-19T05:32:48.242Z,100.00
2023-05-19T05:35:16.737Z,99.63
2023-05-19T05:37:44.604Z,99.16
2023-05-19T05:40:12.964Z,98.76
2023-05-19T05:42:40.965Z,97.63
2023-05-19T05:45:09.130Z,91.91
2023-05-19T05:47:37.779Z,92.18
2023-05-19T05:50:08.822Z,91.56
2023-05-19T05:52:37.246Z,90.87
2023-05-19T05:55:06.816Z,93.12
2023-05-19T05:57:35.078Z,91.86
2023-05-19T06:00:03.733Z,91.53
2023-05-19T06:02:32.142Z,92.45
2023-05-19T06:05:00.623Z,92.39
2023-05-19T06:07:29.229Z,94.69
2023-05-19T06:09:59.331Z,95.84
2023-05-19T06:12:31.963Z,94.79
2023-05-19T06:15:03.250Z,94.35
2023-05-19T06:17:32.268Z,96.20
2023-05-19T06:20:02.788Z,93.99
2023-05-19T06:22:30.464Z,93.83
2023-05-19T06:24:58.686Z,94.44
2023-05-19T06:27:26.345Z,94.44
2023-05-19T06:29:54.096Z,95.30
2023-05-19T06:32:22.339Z,94.58
2023-05-19T06:34:50.163Z,94.08
2023-05-19T06:37:17.831Z,94.48
2023-05-19T06:39:45.852Z,94.91
2023-05-19T06:42:13.518Z,92.60
2023-05-19T06:44:41.444Z,93.77
2023-05-19T06:47:10.415Z,90.25
2023-05-19T06:49:39.117Z,89.74
2023-05-19T06:52:07.448Z,90.34
2023-05-19T06:54:35.705Z,90.62
2023-05-19T06:57:03.640Z,90.81
2023-05-19T06:59:31.598Z,91.54
2023-05-19T07:01:59.973Z,90.01
2023-05-19T07:04:27.770Z,87.62
2023-05-19T07:06:56.927Z,88.58
2023-05-19T07:09:25.831Z,87.50
2023-05-19T07:11:53.567Z,89.06
2023-05-19T07:14:21.321Z,87.30
2023-05-19T07:16:49.366Z,87.11
2023-05-19T07:19:17.756Z,86.12
2023-05-19T07:21:46.264Z,87.99
2023-05-19T07:24:14.281Z,87.53
2023-05-19T07:26:41.977Z,86.80
2023-05-19T07:29:10.102Z,89.37
2023-05-19T07:31:38.090Z,87.04
2023-05-19T07:34:05.730Z,84.22
2023-05-19T07:36:33.397Z,83.54
2023-05-19T07:39:01.419Z,83.05
2023-05-19T07:41:29.234Z,83.91
2023-05-19T07:43:56.987Z,85.72
2023-05-19T07:46:25.223Z,84.15
2023-05-19T07:48:52.937Z,83.97
2023-05-19T07:51:20.580Z,84.02
2023-05-19T07:53:48.566Z,80.85
2023-05-19T07:56:16.205Z,81.77
2023-05-19T07:58:43.911Z,79.41
2023-05-19T08:01:11.831Z,77.71
2023-05-19T08:03:40.018Z,79.48
2023-05-19T08:06:07.758Z,78.56
2023-05-19T08:08:35.313Z,77.97
2023-05-19T08:11:04.204Z,79.46
2023-05-19T08:13:31.919Z,75.94
2023-05-19T08:15:59.976Z,76.41
2023-05-19T08:18:28.282Z,77.49
2023-05-19T08:20:56.036Z,76.73
2023-05-19T08:23:23.852Z,74.45
2023-05-19T08:25:52.166Z,76.34
2023-05-19T08:28:19.825Z,74.12
2023-05-19T08:30:47.496Z,74.64
2023-05-19T08:33:15.441Z,75.04
2023-05-19T08:35:43.123Z,74.75
2023-05-19T08:38:10.786Z,74.81
2023-05-19T08:40:41.749Z,75.70
2023-05-19T08:43:09.468Z,75.75
2023-05-19T08:45:37.194Z,73.05
2023-05-19T08:48:05.730Z,71.94
2023-05-19T08:50:35.961Z,73.60
2023-05-19T08:53:33.260Z,73.80
2023-05-19T08:56:06.507Z,72.56
2023-05-19T08:58:34.331Z,73.52
2023-05-19T09:01:02.670Z,70.42
2023-05-19T09:03:30.625Z,72.50
2023-05-19T09:05:58.917Z,69.92
2023-05-19T09:08:27.053Z,70.82
2023-05-19T09:10:54.941Z,70.51
2023-05-19T09:13:23.009Z,69.60
2023-05-19T09:15:53.032Z,69.65
2023-05-19T09:18:20.683Z,70.46
2023-05-19T09:20:48.324Z,70.91
2023-05-19T09:23:17.747Z,70.57
2023-05-19T09:25:52.285Z,67.85
2023-05-19T09:28:38.331Z,70.11
2023-05-19T09:31:07.451Z,68.04
2023-05-19T09:33:39.747Z,66.12
2023-05-19T09:36:07.948Z,68.04
2023-05-19T09:38:36.050Z,64.81
2023-05-19T09:41:04.276Z,66.78
2023-05-19T09:43:32.996Z,66.87
2023-05-19T09:46:04.050Z,68.70
2023-05-19T09:48:32.042Z,66.04
2023-05-19T09:51:00.737Z,65.88
2023-05-19T09:53:30.152Z,64.31
2023-05-19T09:55:58.665Z,63.69
2023-05-19T09:58:26.873Z,64.72
2023-05-19T10:00:55.875Z,60.73
2023-05-19T10:03:25.370Z,63.23
2023-05-19T10:05:53.662Z,64.59
2023-05-19T10:08:22.402Z,62.70
2023-05-19T10:10:50.500Z,61.90
2023-05-19T10:13:18.606Z,62.95
2023-05-19T10:15:58.302Z,59.68
2023-05-19T10:18:27.568Z,58.84
2023-05-19T10:20:56.051Z,57.41
2023-05-19T10:23:23.769Z,62.88
2023-05-19T10:25:52.691Z,65.09
2023-05-19T10:28:22.615Z,57.26
2023-05-19T10:30:51.780Z,59.55
2023-05-19T10:33:22.044Z,59.75
2023-05-19T10:36:02.530Z,59.86
2023-05-19T10:38:49.878Z,64.30
2023-05-19T10:41:55.722Z,65.43
2023-05-19T10:45:01.985Z,61.04
2023-05-19T10:47:30.122Z,61.79
2023-05-19T10:50:00.776Z,61.84
2023-05-19T10:52:30.214Z,62.57
2023-05-19T10:54:58.538Z,61.31
2023-05-19T10:57:26.794Z,59.03
2023-05-19T11:02:43.151Z,55.12
2023-05-19T11:05:15.198Z,54.18
2023-05-19T11:07:43.962Z,52.06
2023-05-19T11:10:11.983Z,53.79
2023-05-19T11:12:41.260Z,56.12
2023-05-19T11:15:13.459Z,53.96
2023-05-19T11:17:41.779Z,54.23
2023-05-19T11:20:20.786Z,53.49
2023-05-19T11:23:08.385Z,54.23
2023-05-19T11:25:49.942Z,49.03
2023-05-19T11:28:21.970Z,43.97
2023-05-19T11:30:56.353Z,47.57
2023-05-19T11:33:24.028Z,46.98
2023-05-19T11:35:53.547Z,48.01
2023-05-19T11:38:21.317Z,47.11
2023-05-19T11:40:49.335Z,48.06
2023-05-19T11:43:17.271Z,45.16
2023-05-19T11:45:45.387Z,45.63
2023-05-19T11:48:13.149Z,45.24
2023-05-19T11:50:41.720Z,49.76
2023-05-19T11:53:12.296Z,46.64
2023-05-19T11:55:45.855Z,48.46
2023-05-19T11:58:14.960Z,48.97
2023-05-19T12:00:44.315Z,50.48
2023-05-19T12:03:15.352Z,48.68
2023-05-19T12:05:48.740Z,46.22
2023-05-19T12:08:20.328Z,44.25
2023-05-19T12:10:48.922Z,45.00
2023-05-19T12:13:16.822Z,45.68
2023-05-19T12:15:44.541Z,44.60
2023-05-19T12:18:12.804Z,42.72
2023-05-19T12:20:41.052Z,44.85
2023-05-19T12:23:08.961Z,45.65
2023-05-19T12:25:36.828Z,43.65
2023-05-19T12:28:05.257Z,44.62
2023-05-19T12:30:34.251Z,44.92
2023-05-19T12:33:03.238Z,43.58
2023-05-19T12:35:32.517Z,42.86
2023-05-19T12:38:19.599Z,43.05
2023-05-19T12:40:47.636Z,44.55
2023-05-19T12:43:25.149Z,41.22
2023-05-19T12:45:53.158Z,43.79
2023-05-19T12:48:23.796Z,41.50
2023-05-19T12:50:54.072Z,41.00
2023-05-19T12:53:22.108Z,40.41
2023-05-19T12:55:51.905Z,40.20
2023-05-19T12:58:19.987Z,39.16
2023-05-19T13:00:47.926Z,38.84
2023-05-19T13:03:21.920Z,38.44
2023-05-19T13:05:51.115Z,40.46
2023-05-19T13:08:20.875Z,38.40
2023-05-19T13:10:51.694Z,36.82
2023-05-19T13:13:19.587Z,41.22
2023-05-19T13:15:47.441Z,41.32
2023-05-19T13:18:15.667Z,40.12
2023-05-19T13:20:45.352Z,38.57
2023-05-19T13:23:14.058Z,40.27
2023-05-19T13:25:42.423Z,39.95
2023-05-19T13:28:13.815Z,40.69
2023-05-19T13:30:44.885Z,40.64
2023-05-19T13:33:15.889Z,41.32
2023-05-19T13:35:43.631Z,41.28
2023-05-19T13:38:11.523Z,40.02
2023-05-19T13:40:39.775Z,40.85
2023-05-19T13:43:07.702Z,40.13
2023-05-19T13:45:35.407Z,41.49
2023-05-19T13:48:03.469Z,40.80
2023-05-19T13:50:31.167Z,39.38
2023-05-19T13:52:59.019Z,41.55
2023-05-19T13:55:26.910Z,41.52
2023-05-19T13:57:54.819Z,41.01
2023-05-19T14:00:22.755Z,39.92
2023-05-19T14:02:50.777Z,41.06
2023-05-19T14:05:18.651Z,38.91
2023-05-19T14:07:47.493Z,38.34
2023-05-19T14:10:15.478Z,39.91
2023-05-19T14:13:02.458Z,43.30
2023-05-19T14:15:31.077Z,44.33
2023-05-19T14:17:59.190Z,43.16
2023-05-19T14:20:29.202Z,42.36
2023-05-19T14:22:57.514Z,45.76
2023-05-19T14:25:25.182Z,45.42
2023-05-19T14:27:52.843Z,46.20
2023-05-19T14:30:20.805Z,46.78
2023-05-19T14:32:48.494Z,47.96
2023-05-19T14:35:16.229Z,46.77
2023-05-19T14:37:44.204Z,46.43
2023-05-19T14:40:12.383Z,45.22
2023-05-19T14:42:40.039Z,46.02
2023-05-19T14:45:08.599Z,46.96
2023-05-19T14:47:36.229Z,48.52
2023-05-19T14:50:04.076Z,47.97
2023-05-19T14:52:33.261Z,47.85
2023-05-19T14:55:04.298Z,47.51
2023-05-19T14:57:32.406Z,48.62
2023-05-19T15:00:00.168Z,47.90
2023-05-19T15:02:29.694Z,48.04
2023-05-19T15:04:58.561Z,49.42
2023-05-19T15:07:26.152Z,49.46
2023-05-19T15:09:53.910Z,49.16
2023-05-19T15:12:21.999Z,48.12
2023-05-19T15:14:49.786Z,46.65
2023-05-19T15:17:17.556Z,47.92
2023-05-19T15:19:45.574Z,46.26
2023-05-19T15:22:13.231Z,46.48
2023-05-19T15:24:40.951Z,46.72
2023-05-19T15:27:09.023Z,47.78
2023-05-19T15:29:36.790Z,46.18
2023-05-19T15:32:04.745Z,47.77
2023-05-19T15:34:32.670Z,48.04
2023-05-19T15:37:00.256Z,49.08
2023-05-19T15:39:30.284Z,49.90
2023-05-19T15:41:58.569Z,50.17
2023-05-19T15:44:28.819Z,50.94
2023-05-19T15:46:56.944Z,51.64
2023-05-19T15:49:24.872Z,50.31
2023-05-19T15:51:52.474Z,50.48
2023-05-19T15:54:20.190Z,53.41
2023-05-19T15:56:48.938Z,53.95
2023-05-19T15:59:16.766Z,54.22
2023-05-19T16:01:44.577Z,54.27
2023-05-19T16:04:13.170Z,55.56
2023-05-19T16:06:40.942Z,55.81
2023-05-19T16:09:08.551Z,54.78
2023-05-19T16:11:36.471Z,56.23
2023-05-19T16:14:04.122Z,56.83
2023-05-19T16:16:31.952Z,54.26
2023-05-19T16:19:00.295Z,52.63
2023-05-19T16:21:30.318Z,53.20
2023-05-19T16:24:00.766Z,53.59
2023-05-19T16:26:29.419Z,53.69
2023-05-19T16:28:57.226Z,54.02
2023-05-19T16:31:24.822Z,55.30
2023-05-19T16:33:54.083Z,55.17
2023-05-19T16:36:21.802Z,56.26
2023-05-19T16:38:49.489Z,58.99
2023-05-19T16:41:17.513Z,60.78
2023-05-19T16:43:45.275Z,59.18
2023-05-19T16:46:13.012Z,60.09
2023-05-19T16:48:41.024Z,60.19
2023-05-19T16:51:08.608Z,60.83
2023-05-19T16:53:36.268Z,61.26
2023-05-19T16:56:04.492Z,60.82
2023-05-19T16:58:32.106Z,61.32
2023-05-19T17:01:00.274Z,62.11
2023-05-19T17:03:28.802Z,62.82
2023-05-19T17:05:56.584Z,62.11
2023-05-19T17:08:24.275Z,64.66
2023-05-19T17:10:52.230Z,64.74
2023-05-19T17:13:19.844Z,63.79
2023-05-19T17:15:47.510Z,64.74
2023-05-19T17:18:15.597Z,67.37
2023-05-19T17:20:43.416Z,68.49
2023-05-19T17:23:11.024Z,68.63
2023-05-19T17:25:39.030Z,67.03
2023-05-19T17:28:06.699Z,66.49
2023-05-19T17:30:34.693Z,66.89
2023-05-19T17:33:02.929Z,69.03
2023-05-19T17:35:30.633Z,70.76
2023-05-19T17:37:58.695Z,70.63
2023-05-19T17:40:26.676Z,70.52
2023-05-19T17:42:54.305Z,70.39
2023-05-19T17:45:22.117Z,68.89
2023-05-19T17:47:50.134Z,69.72
2023-05-19T17:50:17.892Z,69.26
2023-05-19T17:52:45.734Z,69.34
2023-05-19T17:55:14.124Z,69.71
2023-05-19T17:57:44.279Z,70.37
2023-05-19T18:00:12.921Z,71.40
2023-05-19T18:02:41.162Z,71.16
2023-05-19T18:05:09.580Z,70.39
2023-05-19T18:07:38.439Z,70.05
2023-05-19T18:10:07.251Z,70.50
2023-05-19T18:12:35.075Z,71.73
2023-05-19T18:15:03.564Z,70.34
2023-05-19T18:17:31.564Z,69.99
2023-05-19T18:19:59.767Z,71.36
2023-05-19T18:22:27.911Z,73.75
2023-05-19T18:24:55.787Z,73.77
2023-05-19T18:27:23.628Z,74.28
2023-05-19T18:29:51.348Z,74.23
2023-05-19T18:32:19.322Z,73.97
2023-05-19T18:34:47.065Z,73.38
2023-05-19T18:37:15.184Z,73.87
2023-05-19T18:39:43.347Z,74.68
2023-05-19T18:42:11.357Z,74.52
2023-05-19T18:44:39.234Z,73.40
2023-05-19T18:47:07.257Z,72.45
2023-05-19T18:49:34.879Z,76.30
2023-05-19T18:52:02.711Z,76.43
2023-05-19T18:54:31.255Z,76.90
2023-05-19T18:56:59.483Z,77.61
2023-05-19T18:59:27.198Z,77.88
2023-05-19T19:01:55.393Z,77.56
2023-05-19T19:04:23.142Z,77.99
2023-05-19T19:06:50.747Z,77.44
2023-05-19T19:09:19.235Z,77.92
2023-05-19T19:11:46.864Z,78.20
2023-05-19T19:14:14.542Z,78.20
2023-05-19T19:16:42.462Z,78.49
2023-05-19T19:19:10.202Z,78.31
2023-05-19T19:21:38.284Z,78.55
2023-05-19T19:24:09.380Z,78.31
2023-05-19T19:26:37.072Z,82.41
2023-05-19T19:29:04.851Z,84.41
2023-05-19T19:31:34.829Z,84.77
2023-05-19T19:34:06.014Z,85.17
2023-05-19T19:36:33.954Z,84.86
2023-05-19T19:39:01.911Z,84.50
2023-05-19T19:41:29.969Z,85.43
2023-05-19T19:43:58.117Z,85.60
2023-05-19T19:46:25.921Z,85.39
2023-05-19T19:48:56.674Z,84.24
2023-05-19T19:51:24.704Z,84.35
2023-05-19T19:53:52.457Z,85.40
2023-05-19T19:56:20.145Z,85.27
2023-05-19T19:58:48.042Z,84.50
2023-05-19T20:01:16.096Z,84.95
2023-05-19T20:03:44.788Z,85.00
2023-05-19T20:06:12.550Z,85.43
2023-05-19T20:08:40.267Z,84.07
2023-05-19T20:11:08.412Z,83.35
2023-05-19T20:13:36.382Z,84.50
2023-05-19T20:16:04.188Z,85.12
2023-05-19T20:18:32.364Z,84.08
2023-05-19T20:21:00.268Z,84.92
2023-05-19T20:23:28.066Z,80.73
2023-05-19T20:26:11.158Z,82.51
2023-05-19T20:28:40.704Z,85.42
2023-05-19T20:31:08.953Z,86.49
2023-05-19T20:33:36.639Z,86.21
2023-05-19T20:36:05.541Z,86.67
2023-05-19T20:38:33.564Z,81.44
2023-05-19T20:41:01.074Z,80.80
2023-05-19T20:43:28.688Z,80.61
2023-05-19T20:45:56.893Z,80.36
2023-05-19T20:48:24.674Z,80.36
2023-05-19T20:50:53.311Z,80.40
2023-05-19T20:53:21.768Z,81.04
2023-05-19T20:55:49.553Z,80.47
2023-05-19T20:58:17.393Z,81.65
2023-05-19T21:00:45.437Z,85.75
2023-05-19T21:03:14.785Z,85.65
2023-05-19T21:05:42.666Z,85.90
2023-05-19T21:08:10.698Z,86.06
2023-05-19T21:10:38.437Z,85.38
2023-05-19T21:13:06.156Z,85.56
2023-05-19T21:15:34.083Z,85.92
2023-05-19T21:18:02.419Z,85.88
2023-05-19T21:20:30.160Z,86.20
2023-05-19T21:22:58.380Z,85.63
2023-05-19T21:25:26.165Z,86.09
2023-05-19T21:27:54.011Z,86.27
2023-05-19T21:30:22.047Z,86.55
2023-05-19T21:32:49.809Z,83.30
2023-05-19T21:35:17.664Z,80.91
2023-05-19T21:37:45.602Z,85.21
2023-05-19T21:40:13.373Z,86.23
2023-05-19T21:42:41.034Z,87.02
2023-05-19T21:45:09.337Z,87.22
2023-05-19T21:47:37.018Z,87.51
2023-05-19T21:50:04.947Z,87.59
2023-05-19T21:52:33.006Z,86.51
2023-05-19T21:55:00.538Z,87.04
2023-05-19T21:57:28.142Z,87.62
2023-05-19T21:59:56.036Z,87.84
2023-05-19T22:02:23.845Z,88.50
2023-05-19T22:04:52.068Z,88.55
2023-05-19T22:07:19.734Z,88.87
2023-05-19T22:09:48.890Z,88.52
2023-05-19T22:12:16.997Z,88.92
2023-05-19T22:14:44.669Z,89.19
2023-05-19T22:17:12.343Z,88.79
2023-05-19T22:19:40.298Z,89.38
2023-05-19T22:22:14.267Z,89.66
2023-05-19T22:24:42.822Z,88.68
2023-05-19T22:27:10.446Z,90.16
2023-05-19T22:29:38.183Z,90.03
2023-05-19T22:32:07.240Z,89.37
2023-05-19T22:34:34.948Z,88.94
2023-05-19T22:37:02.585Z,90.20
2023-05-19T22:39:30.441Z,90.30
2023-05-19T22:41:58.278Z,88.98
2023-05-19T22:44:25.933Z,89.70
2023-05-19T22:46:54.150Z,88.65
2023-05-19T22:49:22.080Z,88.71
2023-05-19T22:51:50.185Z,89.02
2023-05-19T22:54:18.241Z,89.24
2023-05-19T22:56:46.522Z,89.90
2023-05-19T22:59:14.841Z,89.95
2023-05-19T23:01:42.860Z,90.65
2023-05-19T23:04:10.655Z,91.69
2023-05-19T23:06:38.322Z,92.85
2023-05-19T23:09:06.351Z,90.50
2023-05-19T23:11:34.126Z,88.23
2023-05-19T23:14:02.040Z,87.55
2023-05-19T23:16:29.887Z,87.41
2023-05-19T23:18:57.935Z,92.69
2023-05-19T23:21:25.624Z,91.10
2023-05-19T23:23:53.512Z,93.95
2023-05-19T23:26:21.157Z,94.56
2023-05-19T23:28:48.880Z,94.57
2023-05-19T23:31:16.938Z,91.69
2023-05-19T23:33:44.565Z,92.26
2023-05-19T23:36:12.250Z,93.33
2023-05-19T23:38:40.187Z,94.35
2023-05-19T23:41:07.806Z,95.21
2023-05-19T23:43:35.384Z,94.93
2023-05-19T23:46:03.367Z,90.96
2023-05-19T23:48:31.047Z,92.67
2023-05-19T23:50:58.889Z,91.05
2023-05-19T23:53:26.770Z,92.23
2023-05-19T23:55:55.286Z,92.93
2023-05-19T23:58:23.699Z,89.84
